sensor_id;sensor_type;location;lat;lon;timestamp;temperature;humidity
1996;DHT22;38556;47.068;15.408;2023-03-14T00:00:08;9.20;90.00
1996;DHT22;38556;47.068;15.408;2023-03-14T00:02:36;9.00;90.30
1996;DHT22;38556;47.068;15.408;2023-03-14T00:05:05;8.90;90.30
1996;DHT22;38556;47.068;15.408;2023-03-14T00:07:33;8.30;90.70
1996;DHT22;38556;47.068;15.408;2023-03-14T00:10:02;8.30;91.30
1996;DHT22;38556;47.068;15.408;2023-03-14T00:12:31;8.20;91.40
1996;DHT22;38556;47.068;15.408;2023-03-14T00:14:58;8.20;91.70
1996;DHT22;38556;47.068;15.408;2023-03-14T00:17:30;8.20;91.20
1996;DHT22;38556;47.068;15.408;2023-03-14T00:19:58;8.20;91.50
1996;DHT22;38556;47.068;15.408;2023-03-14T00:22:30;8.10;91.70
1996;DHT22;38556;47.068;15.408;2023-03-14T00:24:57;8.10;91.80
1996;DHT22;38556;47.068;15.408;2023-03-14T00:27:24;8.20;91.30
1996;DHT22;38556;47.068;15.408;2023-03-14T00:29:52;8.30;91.20
1996;DHT22;38556;47.068;15.408;2023-03-14T00:32:19;8.40;91.60
1996;DHT22;38556;47.068;15.408;2023-03-14T00:34:48;8.40;91.40
1996;DHT22;38556;47.068;15.408;2023-03-14T00:37:15;8.20;91.40
1996;DHT22;38556;47.068;15.408;2023-03-14T00:39:42;8.30;91.70
1996;DHT22;38556;47.068;15.408;2023-03-14T00:42:10;8.40;91.60
1996;DHT22;38556;47.068;15.408;2023-03-14T00:44:37;8.40;91.10
1996;DHT22;38556;47.068;15.408;2023-03-14T00:47:04;8.40;91.10
1996;DHT22;38556;47.068;15.408;2023-03-14T00:49:32;8.40;91.40
1996;DHT22;38556;47.068;15.408;2023-03-14T00:52:01;8.60;91.20
1996;DHT22;38556;47.068;15.408;2023-03-14T00:54:28;8.70;90.90
1996;DHT22;38556;47.068;15.408;2023-03-14T00:56:55;8.70;90.90
1996;DHT22;38556;47.068;15.408;2023-03-14T00:59:22;8.70;91.20
1996;DHT22;38556;47.068;15.408;2023-03-14T01:01:50;8.70;90.80
1996;DHT22;38556;47.068;15.408;2023-03-14T01:04:17;8.70;91.10
1996;DHT22;38556;47.068;15.408;2023-03-14T01:06:44;8.70;90.70
1996;DHT22;38556;47.068;15.408;2023-03-14T01:09:13;8.80;90.70
1996;DHT22;38556;47.068;15.408;2023-03-14T01:11:43;8.80;90.60
1996;DHT22;38556;47.068;15.408;2023-03-14T01:14:13;8.80;90.90
1996;DHT22;38556;47.068;15.408;2023-03-14T01:16:40;8.90;90.90
1996;DHT22;38556;47.068;15.408;2023-03-14T01:19:08;9.00;90.90
1996;DHT22;38556;47.068;15.408;2023-03-14T01:21:36;9.00;90.80
1996;DHT22;38556;47.068;15.408;2023-03-14T01:24:05;9.00;90.40
1996;DHT22;38556;47.068;15.408;2023-03-14T01:26:34;8.90;90.50
1996;DHT22;38556;47.068;15.408;2023-03-14T01:29:02;8.90;90.80
1996;DHT22;38556;47.068;15.408;2023-03-14T01:31:30;9.00;91.10
1996;DHT22;38556;47.068;15.408;2023-03-14T01:33:57;9.00;90.70
1996;DHT22;38556;47.068;15.408;2023-03-14T01:36:24;9.00;90.90
1996;DHT22;38556;47.068;15.408;2023-03-14T01:38:52;9.00;90.50
1996;DHT22;38556;47.068;15.408;2023-03-14T01:41:22;8.80;90.60
1996;DHT22;38556;47.068;15.408;2023-03-14T01:43:51;8.80;90.90
1996;DHT22;38556;47.068;15.408;2023-03-14T01:46:26;8.90;90.70
1996;DHT22;38556;47.068;15.408;2023-03-14T01:49:03;8.90;90.60
1996;DHT22;38556;47.068;15.408;2023-03-14T01:51:36;8.80;90.90
1996;DHT22;38556;47.068;15.408;2023-03-14T01:54:10;9.90;91.40
1996;DHT22;38556;47.068;15.408;2023-03-14T01:56:40;9.00;90.90
1996;DHT22;38556;47.068;15.408;2023-03-14T01:59:11;9.10;90.90
1996;DHT22;38556;47.068;15.408;2023-03-14T02:01:41;9.10;90.90
1996;DHT22;38556;47.068;15.408;2023-03-14T02:04:10;9.10;90.80
1996;DHT22;38556;47.068;15.408;2023-03-14T02:06:45;9.10;90.50
1996;DHT22;38556;47.068;15.408;2023-03-14T02:09:14;9.00;90.80
1996;DHT22;38556;47.068;15.408;2023-03-14T02:11:43;9.00;90.80
1996;DHT22;38556;47.068;15.408;2023-03-14T02:14:19;9.00;90.90
1996;DHT22;38556;47.068;15.408;2023-03-14T02:16:49;8.90;90.80
1996;DHT22;38556;47.068;15.408;2023-03-14T02:19:19;8.70;91.20
1996;DHT22;38556;47.068;15.408;2023-03-14T02:21:54;8.50;91.40
1996;DHT22;38556;47.068;15.408;2023-03-14T02:24:27;8.10;91.50
1996;DHT22;38556;47.068;15.408;2023-03-14T02:27:05;8.20;91.90
1996;DHT22;38556;47.068;15.408;2023-03-14T02:29:33;8.20;92.30
1996;DHT22;38556;47.068;15.408;2023-03-14T02:32:03;8.40;92.10
1996;DHT22;38556;47.068;15.408;2023-03-14T02:34:31;8.50;92.00
1996;DHT22;38556;47.068;15.408;2023-03-14T02:37:00;8.70;91.80
1996;DHT22;38556;47.068;15.408;2023-03-14T02:39:32;8.80;91.60
1996;DHT22;38556;47.068;15.408;2023-03-14T02:42:04;8.80;91.90
1996;DHT22;38556;47.068;15.408;2023-03-14T02:44:31;8.90;91.40
1996;DHT22;38556;47.068;15.408;2023-03-14T02:46:58;8.90;91.40
1996;DHT22;38556;47.068;15.408;2023-03-14T02:49:27;8.90;91.40
1996;DHT22;38556;47.068;15.408;2023-03-14T02:51:56;8.80;91.50
1996;DHT22;38556;47.068;15.408;2023-03-14T02:54:23;8.80;91.60
1996;DHT22;38556;47.068;15.408;2023-03-14T02:56:51;8.60;91.60
1996;DHT22;38556;47.068;15.408;2023-03-14T02:59:19;8.60;91.90
1996;DHT22;38556;47.068;15.408;2023-03-14T03:01:46;8.50;91.90
1996;DHT22;38556;47.068;15.408;2023-03-14T03:04:14;8.50;92.20
1996;DHT22;38556;47.068;15.408;2023-03-14T03:06:41;8.50;91.90
1996;DHT22;38556;47.068;15.408;2023-03-14T03:09:08;8.30;92.30
1996;DHT22;38556;47.068;15.408;2023-03-14T03:11:36;8.20;92.40
1996;DHT22;38556;47.068;15.408;2023-03-14T03:14:03;8.30;92.50
1996;DHT22;38556;47.068;15.408;2023-03-14T03:16:31;8.50;92.30
1996;DHT22;38556;47.068;15.408;2023-03-14T03:18:59;8.40;92.00
1996;DHT22;38556;47.068;15.408;2023-03-14T03:21:26;8.60;91.90
1996;DHT22;38556;47.068;15.408;2023-03-14T03:23:53;8.60;91.70
1996;DHT22;38556;47.068;15.408;2023-03-14T03:26:21;8.70;92.00
1996;DHT22;38556;47.068;15.408;2023-03-14T03:28:50;8.70;91.50
1996;DHT22;38556;47.068;15.408;2023-03-14T03:31:18;8.70;91.90
1996;DHT22;38556;47.068;15.408;2023-03-14T03:33:47;8.40;92.00
1996;DHT22;38556;47.068;15.408;2023-03-14T03:36:14;8.20;92.50
1996;DHT22;38556;47.068;15.408;2023-03-14T03:38:41;8.20;92.50
1996;DHT22;38556;47.068;15.408;2023-03-14T03:41:09;8.20;92.40
1996;DHT22;38556;47.068;15.408;2023-03-14T03:43:36;8.20;92.70
1996;DHT22;38556;47.068;15.408;2023-03-14T03:46:03;8.20;92.80
1996;DHT22;38556;47.068;15.408;2023-03-14T03:48:31;8.40;92.30
1996;DHT22;38556;47.068;15.408;2023-03-14T03:51:00;8.50;92.50
1996;DHT22;38556;47.068;15.408;2023-03-14T03:53:27;8.60;92.30
1996;DHT22;38556;47.068;15.408;2023-03-14T03:55:55;8.70;91.80
1996;DHT22;38556;47.068;15.408;2023-03-14T03:58:22;8.70;91.70
1996;DHT22;38556;47.068;15.408;2023-03-14T04:00:49;8.30;91.70
1996;DHT22;38556;47.068;15.408;2023-03-14T04:03:17;8.00;92.30
1996;DHT22;38556;47.068;15.408;2023-03-14T04:05:44;4.60;91.20
1996;DHT22;38556;47.068;15.408;2023-03-14T04:08:13;7.90;92.70
1996;DHT22;38556;47.068;15.408;2023-03-14T04:10:40;7.80;93.00
1996;DHT22;38556;47.068;15.408;2023-03-14T04:13:07;7.80;93.10
1996;DHT22;38556;47.068;15.408;2023-03-14T04:15:34;7.70;93.10
1996;DHT22;38556;47.068;15.408;2023-03-14T04:18:02;7.90;92.90
1996;DHT22;38556;47.068;15.408;2023-03-14T04:20:29;8.00;92.80
1996;DHT22;38556;47.068;15.408;2023-03-14T04:22:56;7.90;93.10
1996;DHT22;38556;47.068;15.408;2023-03-14T04:25:25;7.70;93.10
1996;DHT22;38556;47.068;15.408;2023-03-14T04:27:52;7.60;93.40
1996;DHT22;38556;47.068;15.408;2023-03-14T04:30:19;7.70;93.70
1996;DHT22;38556;47.068;15.408;2023-03-14T04:32:47;7.60;93.70
1996;DHT22;38556;47.068;15.408;2023-03-14T04:35:14;7.40;94.10
1996;DHT22;38556;47.068;15.408;2023-03-14T04:37:41;7.40;94.20
1996;DHT22;38556;47.068;15.408;2023-03-14T04:40:10;7.40;94.50
1996;DHT22;38556;47.068;15.408;2023-03-14T04:42:39;7.50;94.20
1996;DHT22;38556;47.068;15.408;2023-03-14T04:45:07;7.80;94.10
1996;DHT22;38556;47.068;15.408;2023-03-14T04:47:35;7.80;94.10
1996;DHT22;38556;47.068;15.408;2023-03-14T04:50:02;7.70;94.40
1996;DHT22;38556;47.068;15.408;2023-03-14T04:52:30;7.60;94.70
1996;DHT22;38556;47.068;15.408;2023-03-14T04:54:57;7.80;94.70
1996;DHT22;38556;47.068;15.408;2023-03-14T04:57:24;8.20;94.10
1996;DHT22;38556;47.068;15.408;2023-03-14T04:59:53;8.10;94.20
1996;DHT22;38556;47.068;15.408;2023-03-14T05:02:20;7.90;94.00
1996;DHT22;38556;47.068;15.408;2023-03-14T05:04:47;8.10;93.90
1996;DHT22;38556;47.068;15.408;2023-03-14T05:07:14;8.00;93.80
1996;DHT22;38556;47.068;15.408;2023-03-14T05:09:42;7.90;93.90
1996;DHT22;38556;47.068;15.408;2023-03-14T05:12:09;8.00;94.30
1996;DHT22;38556;47.068;15.408;2023-03-14T05:14:36;8.20;94.20
1996;DHT22;38556;47.068;15.408;2023-03-14T05:17:06;8.30;93.70
1996;DHT22;38556;47.068;15.408;2023-03-14T05:19:34;8.30;94.10
1996;DHT22;38556;47.068;15.408;2023-03-14T05:22:02;8.20;94.20
1996;DHT22;38556;47.068;15.408;2023-03-14T05:24:29;8.40;95.50
1996;DHT22;38556;47.068;15.408;2023-03-14T05:26:56;8.60;95.10
1996;DHT22;38556;47.068;15.408;2023-03-14T05:29:24;8.60;95.00
1996;DHT22;38556;47.068;15.408;2023-03-14T05:31:51;8.70;95.20
1996;DHT22;38556;47.068;15.408;2023-03-14T05:34:20;8.80;94.80
1996;DHT22;38556;47.068;15.408;2023-03-14T05:36:47;8.80;95.10
1996;DHT22;38556;47.068;15.408;2023-03-14T05:39:14;8.80;94.70
1996;DHT22;38556;47.068;15.408;2023-03-14T05:41:41;8.90;95.00
1996;DHT22;38556;47.068;15.408;2023-03-14T05:44:09;8.90;94.70
1996;DHT22;38556;47.068;15.408;2023-03-14T05:46:36;8.90;95.00
1996;DHT22;38556;47.068;15.408;2023-03-14T05:49:03;8.90;94.80
1996;DHT22;38556;47.068;15.408;2023-03-14T05:51:32;9.00;94.90
1996;DHT22;38556;47.068;15.408;2023-03-14T05:53:59;9.20;94.90
1996;DHT22;38556;47.068;15.408;2023-03-14T05:56:26;9.20;95.10
1996;DHT22;38556;47.068;15.408;2023-03-14T05:58:54;9.40;94.70
1996;DHT22;38556;47.068;15.408;2023-03-14T06:01:21;9.40;94.90
1996;DHT22;38556;47.068;15.408;2023-03-14T06:03:49;9.40;94.60
1996;DHT22;38556;47.068;15.408;2023-03-14T06:06:16;9.40;94.80
1996;DHT22;38556;47.068;15.408;2023-03-14T06:08:44;9.40;94.50
1996;DHT22;38556;47.068;15.408;2023-03-14T06:11:12;9.40;94.70
1996;DHT22;38556;47.068;15.408;2023-03-14T06:13:39;9.40;94.80
1996;DHT22;38556;47.068;15.408;2023-03-14T06:16:07;9.30;94.20
1996;DHT22;38556;47.068;15.408;2023-03-14T06:18:35;8.80;94.60
1996;DHT22;38556;47.068;15.408;2023-03-14T06:21:03;8.80;95.00
1996;DHT22;38556;47.068;15.408;2023-03-14T06:23:30;9.00;94.80
1996;DHT22;38556;47.068;15.408;2023-03-14T06:25:59;9.10;95.00
1996;DHT22;38556;47.068;15.408;2023-03-14T06:28:26;9.30;95.40
1996;DHT22;38556;47.068;15.408;2023-03-14T06:30:53;9.40;95.40
1996;DHT22;38556;47.068;15.408;2023-03-14T06:33:21;9.40;95.30
1996;DHT22;38556;47.068;15.408;2023-03-14T06:35:48;9.10;94.90
1996;DHT22;38556;47.068;15.408;2023-03-14T06:38:16;9.20;95.20
1996;DHT22;38556;47.068;15.408;2023-03-14T06:40:43;9.30;95.40
1996;DHT22;38556;47.068;15.408;2023-03-14T06:43:12;9.30;95.40
1996;DHT22;38556;47.068;15.408;2023-03-14T06:45:39;9.50;95.50
1996;DHT22;38556;47.068;15.408;2023-03-14T06:48:07;9.70;95.20
1996;DHT22;38556;47.068;15.408;2023-03-14T06:50:34;9.80;95.60
1996;DHT22;38556;47.068;15.408;2023-03-14T06:53:01;9.70;96.40
1996;DHT22;38556;47.068;15.408;2023-03-14T06:55:28;9.70;96.80
1996;DHT22;38556;47.068;15.408;2023-03-14T06:57:56;9.90;96.90
1996;DHT22;38556;47.068;15.408;2023-03-14T07:00:25;9.90;97.20
1996;DHT22;38556;47.068;15.408;2023-03-14T07:02:53;10.10;96.40
1996;DHT22;38556;47.068;15.408;2023-03-14T07:05:20;10.20;96.80
1996;DHT22;38556;47.068;15.408;2023-03-14T07:07:48;10.40;97.40
1996;DHT22;38556;47.068;15.408;2023-03-14T07:10:15;10.60;97.60
1996;DHT22;38556;47.068;15.408;2023-03-14T07:12:43;10.60;97.70
1996;DHT22;38556;47.068;15.408;2023-03-14T07:15:10;10.60;97.80
1996;DHT22;38556;47.068;15.408;2023-03-14T07:17:39;10.70;98.10
1996;DHT22;38556;47.068;15.408;2023-03-14T07:20:08;10.80;98.10
1996;DHT22;38556;47.068;15.408;2023-03-14T07:22:36;10.90;98.10
1996;DHT22;38556;47.068;15.408;2023-03-14T07:25:04;11.10;98.40
1996;DHT22;38556;47.068;15.408;2023-03-14T07:27:32;11.40;98.10
1996;DHT22;38556;47.068;15.408;2023-03-14T07:29:59;11.50;98.40
1996;DHT22;38556;47.068;15.408;2023-03-14T07:32:26;11.60;98.30
1996;DHT22;38556;47.068;15.408;2023-03-14T07:34:55;11.70;98.60
1996;DHT22;38556;47.068;15.408;2023-03-14T07:37:22;11.80;98.40
1996;DHT22;38556;47.068;15.408;2023-03-14T07:39:50;11.90;98.40
1996;DHT22;38556;47.068;15.408;2023-03-14T07:42:17;11.90;98.90
1996;DHT22;38556;47.068;15.408;2023-03-14T07:44:44;12.00;98.80
1996;DHT22;38556;47.068;15.408;2023-03-14T07:47:12;12.10;98.90
1996;DHT22;38556;47.068;15.408;2023-03-14T07:49:39;12.10;98.90
1996;DHT22;38556;47.068;15.408;2023-03-14T07:52:08;12.30;99.10
1996;DHT22;38556;47.068;15.408;2023-03-14T07:54:35;12.40;99.20
1996;DHT22;38556;47.068;15.408;2023-03-14T07:57:03;12.40;99.20
1996;DHT22;38556;47.068;15.408;2023-03-14T07:59:30;12.40;99.30
1996;DHT22;38556;47.068;15.408;2023-03-14T08:01:58;12.40;99.50
1996;DHT22;38556;47.068;15.408;2023-03-14T08:04:25;12.50;99.60
1996;DHT22;38556;47.068;15.408;2023-03-14T08:06:53;12.60;99.60
1996;DHT22;38556;47.068;15.408;2023-03-14T08:09:22;12.70;99.50
1996;DHT22;38556;47.068;15.408;2023-03-14T08:11:50;12.80;99.40
1996;DHT22;38556;47.068;15.408;2023-03-14T08:14:17;12.80;99.20
1996;DHT22;38556;47.068;15.408;2023-03-14T08:16:44;12.90;99.40
1996;DHT22;38556;47.068;15.408;2023-03-14T08:19:11;13.00;99.60
1996;DHT22;38556;47.068;15.408;2023-03-14T08:21:39;13.10;99.40
1996;DHT22;38556;47.068;15.408;2023-03-14T08:24:06;13.40;99.20
1996;DHT22;38556;47.068;15.408;2023-03-14T08:29:03;13.60;98.80
1996;DHT22;38556;47.068;15.408;2023-03-14T08:31:31;13.70;98.70
1996;DHT22;38556;47.068;15.408;2023-03-14T08:33:59;13.80;98.60
1996;DHT22;38556;47.068;15.408;2023-03-14T08:36:27;13.90;98.20
1996;DHT22;38556;47.068;15.408;2023-03-14T08:38:54;14.00;98.10
1996;DHT22;38556;47.068;15.408;2023-03-14T08:41:21;14.00;98.10
1996;DHT22;38556;47.068;15.408;2023-03-14T08:43:50;14.00;97.90
1996;DHT22;38556;47.068;15.408;2023-03-14T08:46:17;14.10;97.60
1996;DHT22;38556;47.068;15.408;2023-03-14T08:48:45;14.20;97.70
1996;DHT22;38556;47.068;15.408;2023-03-14T08:51:14;14.20;97.50
1996;DHT22;38556;47.068;15.408;2023-03-14T08:53:41;14.30;97.80
1996;DHT22;38556;47.068;15.408;2023-03-14T08:56:09;14.30;97.70
1996;DHT22;38556;47.068;15.408;2023-03-14T08:58:36;14.50;97.50
1996;DHT22;38556;47.068;15.408;2023-03-14T09:01:07;14.50;97.30
1996;DHT22;38556;47.068;15.408;2023-03-14T09:03:35;14.50;97.50
1996;DHT22;38556;47.068;15.408;2023-03-14T09:06:03;14.60;97.10
1996;DHT22;38556;47.068;15.408;2023-03-14T09:08:31;14.60;97.00
1996;DHT22;38556;47.068;15.408;2023-03-14T09:10:59;14.70;97.20
1996;DHT22;38556;47.068;15.408;2023-03-14T09:13:26;14.70;96.60
1996;DHT22;38556;47.068;15.408;2023-03-14T09:15:55;14.80;96.80
1996;DHT22;38556;47.068;15.408;2023-03-14T09:18:24;14.90;96.50
1996;DHT22;38556;47.068;15.408;2023-03-14T09:20:52;15.00;96.70
1996;DHT22;38556;47.068;15.408;2023-03-14T09:23:19;15.00;96.20
1996;DHT22;38556;47.068;15.408;2023-03-14T09:25:46;15.10;96.10
1996;DHT22;38556;47.068;15.408;2023-03-14T09:28:13;15.00;95.90
1996;DHT22;38556;47.068;15.408;2023-03-14T09:30:41;14.90;96.10
1996;DHT22;38556;47.068;15.408;2023-03-14T09:33:08;14.90;95.90
1996;DHT22;38556;47.068;15.408;2023-03-14T09:35:37;14.90;96.30
1996;DHT22;38556;47.068;15.408;2023-03-14T09:38:04;15.00;96.20
1996;DHT22;38556;47.068;15.408;2023-03-14T09:40:35;15.00;96.00
1996;DHT22;38556;47.068;15.408;2023-03-14T09:43:03;15.00;95.40
1996;DHT22;38556;47.068;15.408;2023-03-14T09:45:34;15.00;95.30
1996;DHT22;38556;47.068;15.408;2023-03-14T09:48:03;15.00;95.10
1996;DHT22;38556;47.068;15.408;2023-03-14T09:50:38;15.00;95.00
1996;DHT22;38556;47.068;15.408;2023-03-14T09:53:10;15.00;94.80
1996;DHT22;38556;47.068;15.408;2023-03-14T09:55:38;15.00;94.80
1996;DHT22;38556;47.068;15.408;2023-03-14T09:58:11;15.00;94.00
1996;DHT22;38556;47.068;15.408;2023-03-14T10:00:40;14.90;94.20
1996;DHT22;38556;47.068;15.408;2023-03-14T10:03:25;15.00;94.40
1996;DHT22;38556;47.068;15.408;2023-03-14T10:05:55;15.00;94.80
1996;DHT22;38556;47.068;15.408;2023-03-14T10:08:23;14.90;94.50
1996;DHT22;38556;47.068;15.408;2023-03-14T10:10:50;15.00;94.90
1996;DHT22;38556;47.068;15.408;2023-03-14T10:13:20;14.90;95.30
1996;DHT22;38556;47.068;15.408;2023-03-14T10:15:52;14.90;95.50
1996;DHT22;38556;47.068;15.408;2023-03-14T10:18:22;14.80;95.60
1996;DHT22;38556;47.068;15.408;2023-03-14T10:21:03;14.80;95.80
1996;DHT22;38556;47.068;15.408;2023-03-14T10:23:33;14.80;96.00
1996;DHT22;38556;47.068;15.408;2023-03-14T10:26:08;14.90;95.80
1996;DHT22;38556;47.068;15.408;2023-03-14T10:28:39;15.30;95.50
1996;DHT22;38556;47.068;15.408;2023-03-14T10:31:09;15.30;95.80
1996;DHT22;38556;47.068;15.408;2023-03-14T10:33:37;15.50;95.30
1996;DHT22;38556;47.068;15.408;2023-03-14T10:36:17;15.30;94.80
1996;DHT22;38556;47.068;15.408;2023-03-14T10:38:47;15.50;94.60
1996;DHT22;38556;47.068;15.408;2023-03-14T10:41:17;15.60;94.50
1996;DHT22;38556;47.068;15.408;2023-03-14T10:43:50;15.70;94.70
1996;DHT22;38556;47.068;15.408;2023-03-14T10:46:19;15.80;93.60
1996;DHT22;38556;47.068;15.408;2023-03-14T10:48:47;15.80;91.70
1996;DHT22;38556;47.068;15.408;2023-03-14T10:51:24;15.80;90.90
1996;DHT22;38556;47.068;15.408;2023-03-14T10:53:57;15.80;90.60
1996;DHT22;38556;47.068;15.408;2023-03-14T10:56:26;15.70;86.30
1996;DHT22;38556;47.068;15.408;2023-03-14T10:58:57;15.50;84.20
1996;DHT22;38556;47.068;15.408;2023-03-14T11:01:32;15.50;84.60
1996;DHT22;38556;47.068;15.408;2023-03-14T11:04:18;15.50;85.30
1996;DHT22;38556;47.068;15.408;2023-03-14T11:06:55;15.50;85.30
1996;DHT22;38556;47.068;15.408;2023-03-14T11:09:29;15.50;84.80
1996;DHT22;38556;47.068;15.408;2023-03-14T11:12:04;15.40;83.70
1996;DHT22;38556;47.068;15.408;2023-03-14T11:14:43;15.30;83.50
1996;DHT22;38556;47.068;15.408;2023-03-14T11:17:18;15.50;82.70
1996;DHT22;38556;47.068;15.408;2023-03-14T11:20:02;15.50;83.30
1996;DHT22;38556;47.068;15.408;2023-03-14T11:22:37;15.70;82.00
1996;DHT22;38556;47.068;15.408;2023-03-14T11:25:15;15.70;81.60
1996;DHT22;38556;47.068;15.408;2023-03-14T11:27:51;15.70;81.70
1996;DHT22;38556;47.068;15.408;2023-03-14T11:30:25;15.60;80.70
1996;DHT22;38556;47.068;15.408;2023-03-14T11:33:01;15.70;80.70
1996;DHT22;38556;47.068;15.408;2023-03-14T11:35:35;15.70;80.00
1996;DHT22;38556;47.068;15.408;2023-03-14T11:38:13;15.80;79.10
1996;DHT22;38556;47.068;15.408;2023-03-14T11:40:41;15.80;79.70
1996;DHT22;38556;47.068;15.408;2023-03-14T11:43:13;15.90;79.50
1996;DHT22;38556;47.068;15.408;2023-03-14T11:45:42;15.90;80.10
1996;DHT22;38556;47.068;15.408;2023-03-14T11:48:23;15.70;79.30
1996;DHT22;38556;47.068;15.408;2023-03-14T11:50:55;15.70;80.90
1996;DHT22;38556;47.068;15.408;2023-03-14T11:53:36;15.70;80.10
1996;DHT22;38556;47.068;15.408;2023-03-14T11:56:18;15.80;79.80
1996;DHT22;38556;47.068;15.408;2023-03-14T11:58:54;15.70;78.40
1996;DHT22;38556;47.068;15.408;2023-03-14T12:01:30;15.70;77.20
1996;DHT22;38556;47.068;15.408;2023-03-14T12:04:04;15.70;78.50
1996;DHT22;38556;47.068;15.408;2023-03-14T12:09:05;15.60;77.00
1996;DHT22;38556;47.068;15.408;2023-03-14T12:11:36;15.70;76.40
1996;DHT22;38556;47.068;15.408;2023-03-14T12:14:20;15.60;76.50
1996;DHT22;38556;47.068;15.408;2023-03-14T12:16:54;15.80;76.00
1996;DHT22;38556;47.068;15.408;2023-03-14T12:19:31;15.80;76.70
1996;DHT22;38556;47.068;15.408;2023-03-14T12:22:05;16.00;75.70
1996;DHT22;38556;47.068;15.408;2023-03-14T12:24:36;16.00;75.80
1996;DHT22;38556;47.068;15.408;2023-03-14T12:27:06;16.00;73.30
1996;DHT22;38556;47.068;15.408;2023-03-14T12:29:57;16.00;73.60
1996;DHT22;38556;47.068;15.408;2023-03-14T12:32:26;15.70;73.10
1996;DHT22;38556;47.068;15.408;2023-03-14T12:34:53;15.60;73.70
1996;DHT22;38556;47.068;15.408;2023-03-14T12:37:28;15.40;73.10
1996;DHT22;38556;47.068;15.408;2023-03-14T12:40:15;15.50;74.00
1996;DHT22;38556;47.068;15.408;2023-03-14T12:42:57;15.20;73.00
1996;DHT22;38556;47.068;15.408;2023-03-14T12:45:27;15.20;73.20
1996;DHT22;38556;47.068;15.408;2023-03-14T12:48:09;15.20;73.90
1996;DHT22;38556;47.068;15.408;2023-03-14T12:50:41;15.20;74.50
1996;DHT22;38556;47.068;15.408;2023-03-14T12:53:40;15.10;74.20
1996;DHT22;38556;47.068;15.408;2023-03-14T12:56:24;15.10;74.90
1996;DHT22;38556;47.068;15.408;2023-03-14T12:59:16;15.10;74.60
1996;DHT22;38556;47.068;15.408;2023-03-14T13:01:48;15.10;74.70
1996;DHT22;38556;47.068;15.408;2023-03-14T13:04:27;15.10;75.40
1996;DHT22;38556;47.068;15.408;2023-03-14T13:06:56;15.20;74.80
1996;DHT22;38556;47.068;15.408;2023-03-14T13:09:53;15.20;75.40
1996;DHT22;38556;47.068;15.408;2023-03-14T13:12:28;15.20;75.40
1996;DHT22;38556;47.068;15.408;2023-03-14T13:14:59;15.20;75.60
1996;DHT22;38556;47.068;15.408;2023-03-14T13:17:32;15.30;74.40
1996;DHT22;38556;47.068;15.408;2023-03-14T13:20:03;15.30;75.00
1996;DHT22;38556;47.068;15.408;2023-03-14T13:22:33;15.10;76.60
1996;DHT22;38556;47.068;15.408;2023-03-14T13:25:05;15.10;79.40
1996;DHT22;38556;47.068;15.408;2023-03-14T13:27:35;15.00;80.20
1996;DHT22;38556;47.068;15.408;2023-03-14T13:30:16;15.00;80.30
1996;DHT22;38556;47.068;15.408;2023-03-14T13:32:45;15.00;81.30
1996;DHT22;38556;47.068;15.408;2023-03-14T13:35:22;14.90;81.70
1996;DHT22;38556;47.068;15.408;2023-03-14T13:37:57;14.90;81.00
1996;DHT22;38556;47.068;15.408;2023-03-14T13:40:29;14.80;80.90
1996;DHT22;38556;47.068;15.408;2023-03-14T13:43:11;14.80;81.50
1996;DHT22;38556;47.068;15.408;2023-03-14T13:45:51;14.80;80.80
1996;DHT22;38556;47.068;15.408;2023-03-14T13:48:20;14.70;81.20
1996;DHT22;38556;47.068;15.408;2023-03-14T13:50:53;14.70;81.30
1996;DHT22;38556;47.068;15.408;2023-03-14T13:53:22;14.90;81.00
1996;DHT22;38556;47.068;15.408;2023-03-14T13:55:50;14.90;81.60
1996;DHT22;38556;47.068;15.408;2023-03-14T13:58:26;14.90;80.80
1996;DHT22;38556;47.068;15.408;2023-03-14T14:01:06;14.80;80.70
1996;DHT22;38556;47.068;15.408;2023-03-14T14:03:38;14.80;81.30
1996;DHT22;38556;47.068;15.408;2023-03-14T14:06:10;14.70;81.20
1996;DHT22;38556;47.068;15.408;2023-03-14T14:08:44;14.50;80.40
1996;DHT22;38556;47.068;15.408;2023-03-14T14:11:22;14.50;81.30
1996;DHT22;38556;47.068;15.408;2023-03-14T14:13:54;14.60;81.70
1996;DHT22;38556;47.068;15.408;2023-03-14T14:16:24;14.50;81.20
1996;DHT22;38556;47.068;15.408;2023-03-14T14:18:52;14.40;81.10
1996;DHT22;38556;47.068;15.408;2023-03-14T14:21:22;14.50;81.80
1996;DHT22;38556;47.068;15.408;2023-03-14T14:23:50;14.50;81.40
1996;DHT22;38556;47.068;15.408;2023-03-14T14:26:19;14.50;81.90
1996;DHT22;38556;47.068;15.408;2023-03-14T14:28:46;14.50;81.30
1996;DHT22;38556;47.068;15.408;2023-03-14T14:31:21;14.50;81.70
1996;DHT22;38556;47.068;15.408;2023-03-14T14:33:55;14.50;81.40
1996;DHT22;38556;47.068;15.408;2023-03-14T14:36:25;14.60;81.10
1996;DHT22;38556;47.068;15.408;2023-03-14T14:38:57;14.60;81.00
1996;DHT22;38556;47.068;15.408;2023-03-14T14:41:34;14.60;81.00
1996;DHT22;38556;47.068;15.408;2023-03-14T14:44:04;14.60;81.80
1996;DHT22;38556;47.068;15.408;2023-03-14T14:46:34;14.50;81.60
1996;DHT22;38556;47.068;15.408;2023-03-14T14:49:05;14.40;81.20
1996;DHT22;38556;47.068;15.408;2023-03-14T14:51:37;14.40;82.10
1996;DHT22;38556;47.068;15.408;2023-03-14T14:54:14;14.30;81.50
1996;DHT22;38556;47.068;15.408;2023-03-14T14:56:46;14.50;82.30
1996;DHT22;38556;47.068;15.408;2023-03-14T14:59:21;14.50;81.60
1996;DHT22;38556;47.068;15.408;2023-03-14T15:01:55;14.50;81.50
1996;DHT22;38556;47.068;15.408;2023-03-14T15:04:22;14.50;82.20
1996;DHT22;38556;47.068;15.408;2023-03-14T15:06:50;14.60;82.00
1996;DHT22;38556;47.068;15.408;2023-03-14T15:09:19;14.60;82.00
1996;DHT22;38556;47.068;15.408;2023-03-14T15:11:54;14.60;81.60
1996;DHT22;38556;47.068;15.408;2023-03-14T15:14:21;14.60;81.60
1996;DHT22;38556;47.068;15.408;2023-03-14T15:16:50;14.70;81.40
1996;DHT22;38556;47.068;15.408;2023-03-14T15:19:20;14.70;81.30
1996;DHT22;38556;47.068;15.408;2023-03-14T15:21:49;14.70;81.10
1996;DHT22;38556;47.068;15.408;2023-03-14T15:24:16;14.70;80.40
1996;DHT22;38556;47.068;15.408;2023-03-14T15:26:43;14.70;81.10
1996;DHT22;38556;47.068;15.408;2023-03-14T15:29:11;14.70;80.80
1996;DHT22;38556;47.068;15.408;2023-03-14T15:31:39;14.70;81.50
1996;DHT22;38556;47.068;15.408;2023-03-14T15:34:08;14.60;81.20
1996;DHT22;38556;47.068;15.408;2023-03-14T15:36:36;14.60;81.00
1996;DHT22;38556;47.068;15.408;2023-03-14T15:39:05;14.70;80.70
1996;DHT22;38556;47.068;15.408;2023-03-14T15:41:33;14.70;81.20
1996;DHT22;38556;47.068;15.408;2023-03-14T15:44:00;14.80;81.10
1996;DHT22;38556;47.068;15.408;2023-03-14T15:46:28;14.60;80.30
1996;DHT22;38556;47.068;15.408;2023-03-14T15:48:55;14.70;80.30
1996;DHT22;38556;47.068;15.408;2023-03-14T15:51:24;14.70;79.60
1996;DHT22;38556;47.068;15.408;2023-03-14T15:53:51;14.50;79.70
1996;DHT22;38556;47.068;15.408;2023-03-14T15:56:20;14.60;78.80
1996;DHT22;38556;47.068;15.408;2023-03-14T15:58:49;14.90;78.50